Timeline UpdatesTrip UpdatesNews PostsPvt PostsTravel TipsAdmin PostsConv PostsFollowed PostsChat RequestsBlog PostsPNR Posts

Disclaimer
Search
 
 
Thu Apr 17, 2014 04:23:37 ISTHomeTrainsΣChainsAtlasPNRForumGalleryNewsFAQTripsMembersLoginFeedback
No Recent News for this Train
Other Trains in the News **new
Latest...
Will remain cancelled between Bhiwani and Hisar on 28/01/2013 due to work of Road Under Bridge(RUB), only run between Jaipur and Bhiwani.
Sun Jan 27, 2013 (08:08PM)
⇐ Return Journey: Train# 59721

59722/Hisar Jn-Jaipur Jn Passenger (UnReserved)

Jul 16 2013 (12:41AM)
Change Departure Station:
Change Arrival Station:
Post a Train Travel TipPost a Train Travel Tip **new
Post a Comment/Question/Picture/VideoPost a Comment/Question/Picture/Video
Pantry/Catering
✕ NO Pantry Car
✕ NO Catering
RSA - Rake Sharing
Rake/Coach Composition
Loco
News    PNR    Forum    Time-Table    Availability    Fare Chart    Map    Arr/Dep History    Trips    Gallery    ΣChains    X/O    Timeline    
Travel Time: 7h 41m    35 halts    Distance: 327 km    Avg Speed: 42 km/hr
Type: Passenger
Zone: NWR/North Western
Departs @ 14:05 (Avg 13m late)
Platform# ???
SMTWTFS
Hisar Junction/HSR 
Arrives @ 21:46 (Avg 30m late)
Platform# ???
SMTWTFS
Banskho/BSKO 

35 halts. 45 intermediate Stations between Hisar Junction and Banskho

Show ALL intermediate Stations  Show Old Time-Table

#CodeStation NameX/OArrivesAvgDepartsAvgHaltPFDay#KmSpeedElevZoneAddress
1HSR»Hisar Junction (6)»  -14:05+13--10.057215mNWRHisar, Haryana
2STDSatrod  14:16+2214:17+231m--110.558215mNWRHisar, Haryana
3HNSHansi (1)  14:30+2614:31+271m1123.138217mNWRHissar, Haryana
4AUNAurang Nagar  14:40+2914:41+291m--128.950216mNWRAurang Nagar, Haryana
5JKZJitakheri  14:46+2814:47+291m--133.154217mNWRBhiwani, Haryana
6BWKBawani Khera  14:57+2914:58+311m--142.063215mNWRBawani Khera, Haryana
7BNWBhiwani Junction (3)X  15:15+2915:25+2510m--160.068216mNWRBhiwani, Haryana
8MHUManheru (1)  15:37+2815:38+291m1173.666216mNWRBhiwani, Haryana
9CKDCharkhi Dadri (1)  15:50+2915:51+311m1186.962217mNWRDist. Bhiwani, Haryana
10JRLJharili (1)  16:05+2916:06+301m11101.240234mNWRJhajjar, Haryana
11SDRASudharana (1)16:18+2716:19+281m11109.369230mNWRSudharana, Haryana
12KSIKosli (1)  16:24+2816:25+291m11115.045236mNWRTumna Rd, Haryana
13NLQNangal Pathani Halt (1)  16:33+2716:34+281m11121.043231mNWRNangal Pathani, Haryana
14JTSJatusana (1)  16:40+2716:41+291m11125.461243mNWRNanagal Pathani Rd, Haryana
15KGBSKishangarh Balawas (1)  16:50+2616:51+321m11134.517240mNWRKishengarh, Haryana
16RERewari Junction (8)  17:20+2517:25+285m51142.957245mNWRRewari, Haryana
17BWLBawalX  17:41+3417:42+341m--1158.155266mNWRBawal, Haryana
18MJNLMajri Nangal  17:49+3417:50+341m--1164.655273mNWRState Highway 52, Rajasthan
19AIAAjarakaX  17:57+3417:58+341m--1171.053280mNWRAjaraka, Rajasthan
20KNARKhanpur AhirX  18:05+3418:06+341m--1177.247284mNWRMDR 61, Rajasthan
21HSIHarsauli  18:13+3318:14+351m--1182.852287mNWRHarsoli, Rajasthan
22KRHKhairthal (2)  18:23+3618:24+361m21190.554305mNWRKhairthal, Rajasthan
23GALGhatla  18:32+3618:33+361m--1197.655308mNWRState Highway 14, Rajasthan
24PSLParisalX  18:40+3618:41+361m--1204.168289mNWRKhairthal, Rajasthan
25AWRAlwar Junction (2)X  18:53+4018:56+453m21217.757267mNWRAlwar, Rajasthan
26MWWMahwa (1)  19:05+4819:06+501m11226.264264mNWRAlwar, Rajasthan
27MKHMalakhera (1)X  19:16+5019:17+531m11236.847265mNWRMala Khera, Rajasthan
28DGWDhigawara (1)  19:30+4919:31+501m11247.046278mNWRBaswa, Rajasthan
29RHGRajgarh (2)  19:40+5119:41+541m--1253.849303mNWRRajgarh, Rajasthan
30SRRGSurergoth (1)X  19:48+5319:49+531m11259.553308mNWRState Highway 25, Rajasthan
31BUBaswa (1)  19:56+5319:57+561m11265.748291mNWRAlwar, Rajasthan
32GLNAGulana (1)  20:04+5320:05+531m11271.442279mNWRState Highway 25, Rajasthan
33BKIBandikui Junction (6)X  20:15+4720:20+515m--1278.352283mNWRBandikui, Rajasthan
34ARNAArnia (2)  20:27+5820:28+1:081m--1284.446288mNWRBandikui, Rajasthan
35KVGMKolvagram (2)  20:35+1:0520:36+1:081m--1289.770294mNWRBandikui, Rajasthan
36DODausa (2)XO  20:51+1:0520:52+1:091m11307.122333mNWRDausa, Rajasthan
37BSKO•Banskho (2)•21:46+3021:47+321m--1326.547362mNWRJaipur, Rajasthan
38BAIBassi (3)O21:59+3022:00+341m--1336.073352mNWRJaipur, Rajasthan
39KWPKhatipura (2)22:13+2922:14+331m--1351.851364mNWRGandhinagar, Rajasthan
40GTJTGetor Jagatpura (2)X22:21+3022:22+331m--1357.741389mNWRJaipur, Rajasthan
41GADJJaipur Gandhinagar (2)22:30+2722:31+311m--1363.114426mNWRJaipur, Rajasthan
42JPJaipur Junction (7)22:55+20---1368.6-434mNWRJaipur, Rajasthan
Scroll to Top
Scroll to Bottom